createdAt,value
2018-07-15T00:01:22.353Z,70.20
2018-07-15T00:03:50.796Z,70.30
2018-07-15T00:06:19.219Z,70.80
2018-07-15T00:08:48.008Z,70.90
2018-07-15T00:11:16.537Z,70.70
2018-07-15T00:13:45.046Z,71.00
2018-07-15T00:16:13.505Z,70.50
2018-07-15T00:18:42.069Z,70.80
2018-07-15T00:21:11.044Z,70.70
2018-07-15T00:23:39.700Z,71.40
2018-07-15T00:26:08.133Z,70.50
2018-07-15T00:28:36.924Z,70.30
2018-07-15T00:31:05.711Z,70.30
2018-07-15T00:33:34.171Z,70.60
2018-07-15T00:36:02.740Z,70.90
2018-07-15T00:38:32.310Z,70.50
2018-07-15T00:41:00.905Z,70.50
2018-07-15T00:43:29.778Z,70.50
2018-07-15T00:45:58.640Z,70.60
2018-07-15T00:48:27.163Z,70.80
2018-07-15T00:53:24.305Z,71.10
2018-07-15T00:55:52.704Z,70.50
2018-07-15T00:58:21.029Z,70.50
2018-07-15T01:03:23.184Z,69.80
2018-07-15T01:05:52.119Z,70.40
2018-07-15T01:08:20.954Z,70.40
2018-07-15T01:10:49.677Z,70.60
2018-07-15T01:13:18.534Z,70.60
2018-07-15T01:15:47.086Z,70.30
2018-07-15T01:18:15.681Z,71.50
2018-07-15T01:20:44.201Z,70.60
2018-07-15T01:23:13.046Z,70.30
2018-07-15T01:25:41.789Z,70.60
2018-07-15T01:28:10.300Z,70.40
2018-07-15T01:30:39.126Z,70.50
2018-07-15T01:35:36.103Z,70.50
2018-07-15T01:40:33.662Z,70.20
2018-07-15T01:43:02.185Z,70.40
2018-07-15T01:45:30.583Z,70.50
2018-07-15T01:47:59.112Z,70.30
2018-07-15T01:50:28.154Z,71.60
2018-07-15T01:52:56.585Z,71.10
2018-07-15T01:55:25.450Z,71.00
2018-07-15T01:57:54.193Z,70.90
2018-07-15T02:02:50.904Z,71.20
2018-07-15T02:05:19.328Z,70.90
2018-07-15T02:07:47.945Z,70.70
2018-07-15T02:10:17.914Z,70.60
2018-07-15T02:12:46.323Z,70.60
2018-07-15T02:15:14.949Z,70.60
2018-07-15T02:17:43.430Z,70.50
2018-07-15T02:20:11.841Z,70.80
2018-07-15T02:22:40.285Z,71.00
2018-07-15T02:25:08.917Z,71.00
2018-07-15T02:27:37.706Z,71.30
2018-07-15T02:30:06.303Z,70.90
2018-07-15T02:32:34.624Z,71.10
2018-07-15T02:35:03.097Z,71.30
2018-07-15T02:37:31.444Z,71.50
2018-07-15T02:39:59.940Z,71.80
2018-07-15T02:42:28.393Z,71.80
2018-07-15T02:44:56.742Z,71.90
2018-07-15T02:47:25.181Z,71.70
2018-07-15T02:49:53.618Z,71.50
2018-07-15T02:52:22.105Z,71.80
2018-07-15T02:54:50.516Z,71.60
2018-07-15T02:57:18.872Z,72.10
2018-07-15T02:59:47.355Z,71.90
2018-07-15T03:02:15.701Z,72.00
2018-07-15T03:04:44.095Z,71.60
2018-07-15T03:07:12.621Z,72.20
2018-07-15T03:12:09.061Z,72.40
2018-07-15T03:14:37.466Z,72.30
2018-07-15T03:17:05.833Z,72.50
2018-07-15T03:19:34.556Z,72.70
2018-07-15T03:24:31.100Z,72.90
2018-07-15T03:26:59.488Z,72.60
2018-07-15T03:29:27.829Z,73.50
2018-07-15T03:31:56.171Z,72.40
2018-07-15T03:34:24.524Z,72.50
2018-07-15T03:36:53.211Z,72.50
2018-07-15T03:41:49.751Z,72.50
2018-07-15T03:44:18.092Z,72.80
2018-07-15T03:46:46.731Z,72.50
2018-07-15T03:49:15.127Z,72.40
2018-07-15T03:51:43.511Z,72.40
2018-07-15T03:54:12.028Z,72.40
2018-07-15T03:56:40.440Z,72.40
2018-07-15T03:59:08.887Z,72.50
2018-07-15T04:01:37.243Z,72.60
2018-07-15T04:04:05.877Z,72.70
2018-07-15T04:06:34.222Z,72.70
2018-07-15T04:11:30.911Z,72.70
2018-07-15T04:13:59.441Z,72.80
2018-07-15T04:16:27.858Z,72.80
2018-07-15T04:18:56.517Z,72.80
2018-07-15T04:21:24.868Z,73.10
2018-07-15T04:28:49.539Z,73.20
2018-07-15T04:31:17.940Z,73.30
2018-07-15T04:33:46.253Z,73.20
2018-07-15T04:36:14.826Z,73.30
2018-07-15T04:38:43.137Z,73.20
2018-07-15T04:41:11.526Z,73.50
2018-07-15T04:43:39.890Z,73.30
2018-07-15T04:46:08.174Z,73.20
2018-07-15T04:51:04.740Z,73.20
2018-07-15T04:53:33.111Z,73.20
2018-07-15T04:56:01.595Z,73.40
2018-07-15T04:58:30.004Z,73.20
2018-07-15T05:00:58.424Z,72.90
2018-07-15T05:05:55.581Z,72.90
2018-07-15T05:08:24.014Z,72.90
2018-07-15T05:10:52.491Z,73.00
2018-07-15T05:15:55.611Z,73.60
2018-07-15T05:18:24.090Z,72.70
2018-07-15T05:20:52.558Z,72.90
2018-07-15T05:23:21.108Z,72.80
2018-07-15T05:28:17.756Z,72.50
2018-07-15T05:30:46.160Z,72.50
2018-07-15T05:33:14.622Z,72.50
2018-07-15T05:35:42.992Z,72.70
2018-07-15T05:38:12.024Z,72.40
2018-07-15T05:40:40.472Z,72.30
2018-07-15T05:43:09.150Z,72.30
2018-07-15T05:48:06.237Z,72.90
2018-07-15T05:53:03.087Z,72.00
2018-07-15T05:55:31.670Z,71.80
2018-07-15T05:58:00.382Z,71.70
2018-07-15T06:02:57.758Z,71.60
2018-07-15T06:05:26.532Z,71.60
2018-07-15T06:07:56.940Z,71.40
2018-07-15T06:10:26.501Z,71.50
2018-07-15T06:12:57.659Z,71.30
2018-07-15T06:15:26.985Z,71.00
2018-07-15T06:17:57.380Z,71.00
2018-07-15T06:23:29.088Z,71.20
2018-07-15T06:28:25.972Z,70.50
2018-07-15T06:30:54.676Z,70.60
2018-07-15T06:33:23.148Z,70.20
2018-07-15T06:38:19.902Z,69.70
2018-07-15T06:40:48.460Z,69.60
2018-07-15T06:43:16.905Z,69.30
2018-07-15T06:45:45.754Z,69.50
2018-07-15T06:48:14.419Z,69.00
2018-07-15T06:50:43.819Z,68.50
2018-07-15T06:53:12.329Z,68.70
2018-07-15T06:55:40.955Z,68.60
2018-07-15T06:58:09.622Z,68.10
2018-07-15T07:00:37.976Z,67.90
2018-07-15T07:03:06.458Z,68.20
2018-07-15T07:05:35.872Z,67.90
2018-07-15T07:08:04.456Z,67.70
2018-07-15T07:10:32.764Z,67.00
2018-07-15T07:13:01.204Z,67.80
2018-07-15T07:15:29.549Z,67.00
2018-07-15T07:17:57.913Z,67.70
2018-07-15T07:20:26.364Z,66.50
2018-07-15T07:22:54.785Z,66.80
2018-07-15T07:25:23.123Z,66.50
2018-07-15T07:27:52.010Z,66.00
2018-07-15T07:30:20.481Z,66.10
2018-07-15T07:32:49.021Z,66.00
2018-07-15T07:35:17.473Z,66.00
2018-07-15T07:37:45.917Z,65.00
2018-07-15T07:40:14.278Z,64.80
2018-07-15T07:42:42.637Z,65.00
2018-07-15T07:45:11.077Z,65.00
2018-07-15T07:47:39.445Z,64.80
2018-07-15T07:50:07.937Z,64.10
2018-07-15T07:52:36.289Z,63.50
2018-07-15T07:57:32.989Z,63.30
2018-07-15T08:00:01.423Z,63.10
2018-07-15T08:02:30.025Z,62.30
2018-07-15T08:04:58.407Z,62.50
2018-07-15T08:07:26.877Z,62.20
2018-07-15T08:09:55.324Z,62.60
2018-07-15T08:14:51.716Z,61.60
2018-07-15T08:17:20.034Z,61.50
2018-07-15T08:19:48.316Z,60.50
2018-07-15T08:22:16.611Z,60.10
2018-07-15T08:24:45.001Z,61.30
2018-07-15T08:27:13.312Z,60.60
2018-07-15T08:29:53.006Z,59.30
2018-07-15T08:34:49.322Z,58.30
2018-07-15T08:37:17.581Z,57.80
2018-07-15T08:39:45.837Z,57.90
2018-07-15T08:42:14.151Z,57.80
2018-07-15T08:44:42.463Z,57.10
2018-07-15T08:47:10.742Z,55.90
2018-07-15T08:49:39.068Z,55.50
2018-07-15T08:52:07.359Z,56.20
2018-07-15T08:54:36.669Z,56.50
2018-07-15T08:57:11.716Z,56.00
2018-07-15T08:59:40.252Z,55.40
2018-07-15T09:02:08.517Z,55.60
2018-07-15T09:04:36.835Z,55.70
2018-07-15T09:09:33.288Z,54.20
2018-07-15T09:12:01.620Z,53.70
2018-07-15T09:14:29.943Z,53.90
2018-07-15T09:16:58.244Z,53.00
2018-07-15T09:19:26.561Z,53.60
2018-07-15T09:21:55.038Z,53.40
2018-07-15T09:24:23.326Z,52.90
2018-07-15T09:26:51.833Z,52.10
2018-07-15T09:29:20.150Z,52.10
2018-07-15T09:34:16.922Z,51.60
2018-07-15T09:36:45.285Z,50.50
2018-07-15T09:39:13.621Z,52.40
2018-07-15T09:41:41.948Z,50.60
2018-07-15T09:44:10.297Z,50.20
2018-07-15T09:46:38.581Z,51.00
2018-07-15T09:49:09.901Z,49.70
2018-07-15T09:51:38.512Z,49.00
2018-07-15T09:56:34.841Z,49.50
2018-07-15T09:59:03.332Z,47.80
2018-07-15T10:01:31.724Z,49.00
2018-07-15T10:04:00.083Z,47.50
2018-07-15T10:06:29.129Z,48.00
2018-07-15T10:08:57.436Z,46.20
2018-07-15T10:11:25.841Z,48.00
2018-07-15T10:16:22.216Z,47.00
2018-07-15T10:18:50.546Z,48.30
2018-07-15T10:23:46.861Z,45.30
2018-07-15T10:26:15.485Z,46.30
2018-07-15T10:31:12.694Z,46.30
2018-07-15T10:33:40.952Z,45.60
2018-07-15T10:38:37.228Z,46.30
2018-07-15T10:43:33.576Z,43.20
2018-07-15T10:46:01.900Z,42.10
2018-07-15T10:50:58.343Z,41.60
2018-07-15T10:53:26.641Z,42.20
2018-07-15T10:55:54.928Z,42.70
2018-07-15T10:58:23.288Z,42.60
2018-07-15T11:00:51.661Z,41.10
2018-07-15T11:08:15.908Z,40.30
2018-07-15T11:10:44.212Z,40.40
2018-07-15T11:13:12.577Z,40.60
2018-07-15T11:15:40.949Z,39.50
2018-07-15T11:18:09.236Z,39.90
2018-07-15T11:23:06.563Z,39.30
2018-07-15T11:25:34.973Z,38.50
2018-07-15T11:28:03.350Z,38.50
2018-07-15T11:30:31.628Z,36.70
2018-07-15T11:32:59.881Z,36.40
2018-07-15T11:35:28.169Z,37.80
2018-07-15T11:37:56.456Z,37.20
2018-07-15T11:42:52.842Z,36.90
2018-07-15T11:45:21.108Z,34.00
2018-07-15T11:47:49.391Z,36.20
2018-07-15T11:50:17.809Z,37.40
2018-07-15T11:55:14.138Z,37.50
2018-07-15T11:57:42.511Z,36.10
2018-07-15T12:00:10.836Z,37.10
2018-07-15T12:02:39.384Z,36.60
2018-07-15T12:05:08.389Z,36.00
2018-07-15T12:07:36.789Z,35.30
2018-07-15T12:10:05.576Z,35.40
2018-07-15T12:12:33.912Z,34.90
2018-07-15T12:15:02.302Z,35.70
2018-07-15T12:17:30.567Z,34.20
2018-07-15T12:19:58.903Z,35.50
2018-07-15T12:22:27.310Z,35.20
2018-07-15T12:29:52.548Z,33.40
2018-07-15T12:32:20.844Z,34.60
2018-07-15T12:34:49.573Z,34.80
2018-07-15T12:37:18.015Z,35.00
2018-07-15T12:39:46.332Z,34.50
2018-07-15T12:44:42.617Z,35.00
2018-07-15T12:49:38.947Z,34.20
2018-07-15T12:52:07.898Z,32.10
2018-07-15T12:54:36.206Z,31.00
2018-07-15T12:57:04.465Z,31.90
2018-07-15T13:02:00.827Z,33.40
2018-07-15T13:04:29.288Z,33.20
2018-07-15T13:06:57.573Z,32.70
2018-07-15T13:09:25.868Z,32.60
2018-07-15T13:11:55.148Z,32.10
2018-07-15T13:14:23.427Z,32.70
2018-07-15T13:16:51.704Z,32.20
2018-07-15T13:21:48.055Z,31.20
2018-07-15T13:24:16.371Z,30.00
2018-07-15T13:29:12.757Z,29.70
2018-07-15T13:31:41.049Z,31.10
2018-07-15T13:34:09.500Z,30.70
2018-07-15T13:36:37.808Z,30.10
2018-07-15T13:41:34.565Z,30.00
2018-07-15T13:44:03.061Z,29.80
2018-07-15T13:46:31.341Z,29.70
2018-07-15T13:49:00.016Z,28.40
2018-07-15T13:51:28.330Z,29.80
2018-07-15T13:53:56.723Z,29.60
2018-07-15T13:56:25.054Z,30.60
2018-07-15T13:58:53.421Z,29.30
2018-07-15T14:03:49.724Z,29.20
2018-07-15T14:06:18.013Z,30.20
2018-07-15T14:08:46.354Z,29.00
2018-07-15T14:11:14.628Z,29.20
2018-07-15T14:13:42.907Z,29.80
2018-07-15T14:16:11.301Z,29.90
2018-07-15T14:18:39.931Z,29.80
2018-07-15T14:23:36.260Z,29.00
2018-07-15T14:26:04.618Z,29.20
2018-07-15T14:28:32.903Z,29.20
2018-07-15T14:31:01.252Z,28.80
2018-07-15T14:33:29.556Z,30.00
2018-07-15T14:36:00.792Z,28.70
2018-07-15T14:38:29.087Z,28.70
2018-07-15T14:40:58.057Z,29.50
2018-07-15T14:43:26.483Z,28.70
2018-07-15T14:45:54.970Z,28.60
2018-07-15T14:48:23.295Z,30.00
2018-07-15T14:53:19.694Z,30.60
2018-07-15T14:55:48.049Z,29.60
2018-07-15T14:58:16.558Z,29.20
2018-07-15T15:03:12.880Z,31.10
2018-07-15T15:05:41.173Z,31.20
2018-07-15T15:08:09.443Z,30.40
2018-07-15T15:10:37.710Z,30.80
2018-07-15T15:13:06.072Z,31.70
2018-07-15T15:18:02.477Z,33.90
2018-07-15T15:20:30.782Z,34.30
2018-07-15T15:22:59.186Z,34.60
2018-07-15T15:25:27.476Z,35.60
2018-07-15T15:27:56.231Z,35.80
2018-07-15T15:30:24.749Z,35.50
2018-07-15T15:32:53.053Z,35.40
2018-07-15T15:35:21.421Z,35.50
2018-07-15T15:37:50.019Z,36.10
2018-07-15T15:40:18.372Z,36.70
2018-07-15T15:42:47.089Z,36.80
2018-07-15T15:45:15.475Z,37.50
2018-07-15T15:50:11.917Z,37.80
2018-07-15T15:52:40.209Z,37.50
2018-07-15T15:55:08.504Z,37.90
2018-07-15T15:57:36.937Z,37.90
2018-07-15T16:00:05.500Z,38.40
2018-07-15T16:02:33.837Z,37.80
2018-07-15T16:05:02.314Z,38.40
2018-07-15T16:07:31.159Z,38.20
2018-07-15T16:09:59.492Z,38.30
2018-07-15T16:14:56.160Z,39.10
2018-07-15T16:17:24.515Z,38.90
2018-07-15T16:19:52.829Z,39.10
2018-07-15T16:22:21.454Z,39.20
2018-07-15T16:24:49.920Z,39.30
2018-07-15T16:27:18.192Z,39.40
2018-07-15T16:29:46.522Z,40.30
2018-07-15T16:32:14.916Z,39.60
2018-07-15T16:34:43.198Z,39.50
2018-07-15T16:37:11.476Z,39.80
2018-07-15T16:39:39.844Z,39.80
2018-07-15T16:42:08.096Z,39.40
2018-07-15T16:44:36.430Z,39.90
2018-07-15T16:47:04.856Z,39.90
2018-07-15T16:49:33.153Z,40.00
2018-07-15T16:52:01.462Z,39.80
2018-07-15T16:54:29.827Z,39.60
2018-07-15T16:56:58.145Z,39.70
2018-07-15T16:59:26.552Z,39.60
2018-07-15T17:01:54.966Z,39.70
2018-07-15T17:06:51.594Z,39.90
2018-07-15T17:09:19.837Z,39.90
2018-07-15T17:11:48.107Z,39.80
2018-07-15T17:14:16.465Z,39.70
2018-07-15T17:19:12.945Z,40.70
2018-07-15T17:21:41.235Z,40.00
2018-07-15T17:24:09.521Z,40.10
2018-07-15T17:26:37.772Z,40.10
2018-07-15T17:31:35.112Z,40.30
2018-07-15T17:34:03.439Z,39.50
2018-07-15T17:36:31.809Z,40.30
2018-07-15T17:39:00.100Z,40.70
2018-07-15T17:41:28.420Z,40.80
2018-07-15T17:43:56.812Z,41.20
2018-07-15T17:46:25.298Z,41.10
2018-07-15T17:51:21.686Z,42.20
2018-07-15T17:53:49.901Z,41.90
2018-07-15T17:56:18.145Z,41.90
2018-07-15T17:58:46.430Z,42.10
2018-07-15T18:01:14.801Z,41.90
2018-07-15T18:03:43.129Z,42.00
2018-07-15T18:08:39.479Z,42.30
2018-07-15T18:11:07.757Z,42.40
2018-07-15T18:13:36.091Z,42.40
2018-07-15T18:18:32.446Z,42.50
2018-07-15T18:21:00.724Z,42.60
2018-07-15T18:23:28.992Z,42.60
2018-07-15T18:25:57.311Z,42.80
2018-07-15T18:30:53.621Z,43.00
2018-07-15T18:33:21.982Z,43.10
2018-07-15T18:35:50.245Z,43.10
2018-07-15T18:40:47.540Z,43.20
2018-07-15T18:43:15.936Z,42.90
2018-07-15T18:45:44.281Z,43.80
2018-07-15T18:48:12.621Z,43.20
2018-07-15T18:50:40.995Z,43.40
2018-07-15T18:53:09.248Z,43.20
2018-07-15T18:55:37.546Z,43.90
2018-07-15T18:58:05.805Z,43.70
2018-07-15T19:00:34.109Z,43.90
2018-07-15T19:03:02.412Z,44.10
2018-07-15T19:05:30.695Z,44.10
2018-07-15T19:07:59.000Z,44.40
2018-07-15T19:10:27.292Z,44.40
2018-07-15T19:12:55.589Z,44.50
2018-07-15T19:15:23.943Z,44.60
2018-07-15T19:17:52.257Z,44.70
2018-07-15T19:20:20.540Z,45.00
2018-07-15T19:22:48.852Z,45.10
2018-07-15T19:25:17.134Z,45.10
2018-07-15T19:27:45.406Z,45.40
2018-07-15T19:30:13.888Z,45.50
2018-07-15T19:32:42.189Z,45.50
2018-07-15T19:35:10.464Z,45.80
2018-07-15T19:37:38.728Z,46.00
2018-07-15T19:40:07.045Z,46.10
2018-07-15T19:42:35.334Z,46.00
2018-07-15T19:45:03.597Z,46.20
2018-07-15T19:47:31.900Z,46.40
2018-07-15T19:50:00.380Z,46.70
2018-07-15T19:52:28.757Z,46.60
2018-07-15T19:54:57.056Z,47.10
2018-07-15T19:57:25.370Z,47.30
2018-07-15T19:59:53.839Z,47.60
2018-07-15T20:02:22.136Z,47.80
2018-07-15T20:04:50.537Z,47.50
2018-07-15T20:07:18.848Z,47.70
2018-07-15T20:09:47.136Z,47.80
2018-07-15T20:12:15.392Z,47.70
2018-07-15T20:14:43.945Z,47.90
2018-07-15T20:17:12.235Z,47.80
2018-07-15T20:19:40.548Z,48.10
2018-07-15T20:27:05.164Z,48.30
2018-07-15T20:29:33.473Z,48.60
2018-07-15T20:32:01.760Z,48.70
2018-07-15T20:34:30.313Z,48.90
2018-07-15T20:36:58.620Z,49.10
2018-07-15T20:39:26.935Z,49.00
2018-07-15T20:41:55.240Z,49.00
2018-07-15T20:46:51.579Z,49.30
2018-07-15T20:49:20.224Z,49.60
2018-07-15T20:51:48.498Z,49.80
2018-07-15T20:56:44.846Z,50.30
2018-07-15T20:59:13.104Z,49.80
2018-07-15T21:01:41.409Z,50.10
2018-07-15T21:04:09.696Z,49.90
2018-07-15T21:06:37.953Z,49.90
2018-07-15T21:09:06.756Z,49.90
2018-07-15T21:11:35.275Z,49.90
2018-07-15T21:14:03.565Z,50.20
2018-07-15T21:16:31.871Z,50.50
2018-07-15T21:19:00.275Z,50.50
2018-07-15T21:21:28.572Z,50.60
2018-07-15T21:23:56.903Z,50.60
2018-07-15T21:26:25.216Z,50.90
2018-07-15T21:28:53.505Z,50.80
2018-07-15T21:31:21.888Z,50.80
2018-07-15T21:33:50.099Z,50.90
2018-07-15T21:36:18.388Z,51.20
2018-07-15T21:38:46.665Z,51.10
2018-07-15T21:41:14.928Z,51.30
2018-07-15T21:46:11.564Z,51.30
2018-07-15T21:48:39.912Z,51.50
2018-07-15T21:51:08.303Z,51.50
2018-07-15T21:53:42.597Z,51.50
2018-07-15T21:56:11.068Z,51.40
2018-07-15T22:01:07.512Z,51.40
2018-07-15T22:03:36.539Z,51.70
2018-07-15T22:06:05.133Z,51.90
2018-07-15T22:09:48.882Z,51.90
2018-07-15T22:12:17.276Z,52.50
2018-07-15T22:14:45.714Z,52.70
2018-07-15T22:17:14.114Z,52.70
2018-07-15T22:19:42.539Z,53.00
2018-07-15T22:22:10.833Z,52.90
2018-07-15T22:24:39.166Z,52.90
2018-07-15T22:29:37.354Z,53.60
2018-07-15T22:32:06.887Z,53.00
2018-07-15T22:37:04.030Z,54.30
2018-07-15T22:39:35.187Z,53.70
2018-07-15T22:42:04.361Z,53.90
2018-07-15T22:47:00.845Z,54.40
2018-07-15T22:49:29.516Z,54.10
2018-07-15T22:51:57.834Z,54.50
2018-07-15T22:54:26.136Z,54.40
2018-07-15T22:56:54.469Z,55.00
2018-07-15T22:59:22.777Z,55.20
2018-07-15T23:06:51.592Z,55.40
2018-07-15T23:09:19.914Z,56.10
2018-07-15T23:11:48.227Z,56.10
2018-07-15T23:14:16.534Z,56.00
2018-07-15T23:16:44.839Z,56.30
2018-07-15T23:19:13.164Z,56.60
2018-07-15T23:21:41.504Z,56.50
2018-07-15T23:24:09.840Z,56.70
2018-07-15T23:26:38.164Z,56.90
2018-07-15T23:34:03.117Z,57.50
2018-07-15T23:36:31.448Z,57.10
2018-07-15T23:38:59.916Z,57.70
2018-07-15T23:41:28.294Z,57.40
2018-07-15T23:46:24.861Z,57.90
2018-07-15T23:51:21.351Z,57.90
2018-07-15T23:53:49.712Z,57.90
2018-07-15T23:56:18.041Z,58.30
2018-07-15T23:58:46.496Z,58.70
